Time;durP1;ratioP1;P1;durP2;ratioP2;P2;SDS_P1;SDS_P2;PMS_P1;PMS_P2;Temp;Humidity;BMP_temperature;BMP_pressure;BME280_temperature;BME280_humidity;BME280_pressure;Samples;Min_cycle;Max_cycle;Signal;HPM_P1;HPM_P2
2022/01/05 00:00:46;;;;;;;11.70;3.00;;;23.30;93.10;;;;;;4978978;28;20423;-72
2022/01/05 00:03:14;;;;;;;10.48;2.42;;;23.30;93.00;;;;;;5012697;28;20069;-71
2022/01/05 00:05:41;;;;;;;15.23;4.18;;;23.20;92.90;;;;;;5012776;28;20079;-72
2022/01/05 00:08:09;;;;;;;18.67;2.90;;;23.20;92.60;;;;;;5012552;28;20427;-72
2022/01/05 00:10:36;;;;;;;36.85;5.32;;;23.20;92.70;;;;;;4995019;28;20037;-72
2022/01/05 00:13:03;;;;;;;16.30;3.50;;;23.20;92.80;;;;;;5012291;28;20033;-72
2022/01/05 00:15:30;;;;;;;12.85;3.25;;;23.30;92.90;;;;;;5012438;28;20030;-71
2022/01/05 00:17:57;;;;;;;15.32;4.10;;;23.20;92.50;;;;;;5012475;28;20068;-71
2022/01/05 00:20:25;;;;;;;10.77;2.30;;;23.30;93.20;;;;;;5012390;28;20026;-71
2022/01/05 00:22:52;;;;;;;12.80;2.70;;;23.30;93.10;;;;;;5012439;28;20048;-71
2022/01/05 00:25:19;;;;;;;27.35;4.40;;;23.40;93.30;;;;;;5012581;28;20427;-72
2022/01/05 00:27:46;;;;;;;9.98;2.20;;;23.40;92.80;;;;;;5012152;28;20034;-72
2022/01/05 00:30:13;;;;;;;14.88;2.97;;;23.40;92.10;;;;;;5012070;28;20432;-72
2022/01/05 00:32:40;;;;;;;18.20;2.88;;;23.40;91.70;;;;;;5011730;28;20121;-71
2022/01/05 00:35:08;;;;;;;15.35;2.80;;;23.50;91.90;;;;;;4994940;28;20030;-71
2022/01/05 00:37:35;;;;;;;11.45;2.22;;;23.50;92.20;;;;;;5012515;28;20026;-71
2022/01/05 00:40:06;;;;;;;8.20;1.85;;;23.50;92.30;;;;;;5012638;28;20349;-71
2022/01/05 00:42:33;;;;;;;9.88;1.83;;;23.30;92.10;;;;;;5011970;28;20030;-71
2022/01/05 00:45:01;;;;;;;9.85;2.25;;;23.30;91.90;;;;;;5012197;28;20088;-71
2022/01/05 00:47:28;;;;;;;9.80;2.65;;;23.30;91.90;;;;;;5012027;28;20076;-72
2022/01/05 00:49:55;;;;;;;5.90;1.83;;;23.30;92.30;;;;;;4994331;28;20034;-71
2022/01/05 00:52:25;;;;;;;8.38;1.67;;;23.30;91.90;;;;;;5012143;28;20092;-71
2022/01/05 00:54:53;;;;;;;12.40;2.05;;;23.30;92.00;;;;;;5012114;28;20029;-71
2022/01/05 00:57:20;;;;;;;9.10;2.33;;;23.30;92.10;;;;;;5012246;28;20050;-70
2022/01/05 00:59:47;;;;;;;13.55;2.40;;;23.30;92.20;;;;;;5011753;28;20495;-70
2022/01/05 01:02:14;;;;;;;10.13;2.47;;;23.30;92.10;;;;;;4994168;28;20480;-70
2022/01/05 01:04:42;;;;;;;8.98;1.83;;;23.40;92.60;;;;;;4994526;28;20034;-71
2022/01/05 01:07:09;;;;;;;11.05;2.50;;;23.50;92.40;;;;;;4994379;28;20022;-71
2022/01/05 01:09:36;;;;;;;11.57;2.63;;;23.50;92.40;;;;;;4994211;28;20030;-71
2022/01/05 01:12:04;;;;;;;11.52;2.53;;;23.50;91.70;;;;;;4994632;28;20109;-71
2022/01/05 01:14:31;;;;;;;9.40;2.40;;;23.60;91.60;;;;;;4978320;28;20033;-71
2022/01/05 01:17:01;;;;;;;9.70;2.20;;;23.60;91.60;;;;;;5011460;28;20037;-71
2022/01/05 01:19:40;;;;;;;20.83;2.92;;;23.70;91.50;;;;;;5068142;28;20041;-68
2022/01/05 01:22:07;;;;;;;14.80;3.20;;;23.80;91.00;;;;;;5051277;28;20025;-67
2022/01/05 01:24:34;;;;;;;16.52;2.88;;;23.80;91.20;;;;;;5051399;28;20104;-68
2022/01/05 01:27:02;;;;;;;16.45;2.42;;;23.80;90.80;;;;;;5051418;28;20048;-67
2022/01/05 01:29:29;;;;;;;9.80;2.45;;;23.70;89.00;;;;;;5051113;28;20032;-68
2022/01/05 01:31:56;;;;;;;11.20;2.90;;;23.70;88.40;;;;;;5051058;28;20074;-68
2022/01/05 01:34:23;;;;;;;11.50;2.45;;;23.80;89.40;;;;;;5051177;28;20017;-69
2022/01/05 01:36:50;;;;;;;12.38;2.40;;;23.80;89.80;;;;;;5051213;28;20490;-69
2022/01/05 01:39:17;;;;;;;18.50;3.03;;;23.90;90.00;;;;;;5049968;28;20025;-68
2022/01/05 01:41:45;;;;;;;12.60;2.53;;;23.80;89.10;;;;;;5033369;28;20025;-68
2022/01/05 01:44:12;;;;;;;12.23;3.13;;;23.90;89.40;;;;;;5054490;28;20395;-67
2022/01/05 01:46:39;;;;;;;11.57;2.28;;;23.80;89.50;;;;;;5037183;28;20036;-69
2022/01/05 01:49:06;;;;;;;25.48;4.25;;;23.70;89.40;;;;;;5054104;28;20086;-69
2022/01/05 01:51:33;;;;;;;37.45;4.35;;;23.50;90.30;;;;;;5037315;28;20036;-69
2022/01/05 01:54:01;;;;;;;18.42;3.25;;;23.30;91.60;;;;;;5055005;28;20025;-68
2022/01/05 01:56:28;;;;;;;17.35;3.58;;;23.30;92.20;;;;;;5037254;28;20048;-68
2022/01/05 01:58:55;;;;;;;22.02;6.43;;;23.30;92.40;;;;;;5037117;28;20029;-69
2022/01/05 02:01:22;;;;;;;20.98;3.92;;;23.30;93.30;;;;;;5054686;28;20025;-69
2022/01/05 02:03:50;;;;;;;15.00;2.78;;;23.30;93.00;;;;;;5054697;28;20029;-68
2022/01/05 02:06:17;;;;;;;14.82;2.78;;;23.40;93.60;;;;;;5054500;28;20540;-68
2022/01/05 02:08:44;;;;;;;18.35;3.58;;;23.40;93.50;;;;;;5054795;28;20025;-68
2022/01/05 02:11:12;;;;;;;16.17;2.90;;;23.30;93.60;;;;;;5054801;28;20033;-68
2022/01/05 02:13:40;;;;;;;8.68;2.00;;;23.30;93.10;;;;;;5037137;28;20116;-68
2022/01/05 02:16:07;;;;;;;7.85;1.85;;;23.30;93.30;;;;;;5054638;28;20027;-67
2022/01/05 02:21:09;;;;;;;6.03;1.10;;;23.10;93.00;;;;;;5054591;28;20021;-67
2022/01/05 02:23:37;;;;;;;3.92;1.30;;;23.00;92.90;;;;;;5036636;28;20021;-67
2022/01/05 02:26:05;;;;;;;6.20;1.50;;;23.00;93.20;;;;;;5019861;28;20028;-68
2022/01/05 02:28:32;;;;;;;8.95;1.88;;;23.00;93.30;;;;;;5054354;28;20025;-68
2022/01/05 02:31:01;;;;;;;11.95;2.38;;;23.10;93.90;;;;;;5020281;28;20466;-68
2022/01/05 02:33:28;;;;;;;9.68;2.38;;;23.10;93.60;;;;;;5054486;28;20553;-67
2022/01/05 02:35:56;;;;;;;9.32;1.65;;;23.30;94.20;;;;;;5036182;28;20135;-68
2022/01/05 02:38:23;;;;;;;7.20;1.40;;;23.40;94.10;;;;;;5054310;28;20041;-68
2022/01/05 02:40:51;;;;;;;8.38;1.70;;;23.40;92.60;;;;;;5036297;28;20087;-67
2022/01/05 02:43:18;;;;;;;6.60;2.00;;;23.30;92.90;;;;;;5053906;28;20032;-68
2022/01/05 02:45:45;;;;;;;7.85;2.45;;;23.30;92.50;;;;;;5035710;28;20360;-68
2022/01/05 02:48:12;;;;;;;4.28;1.10;;;23.30;93.10;;;;;;5053698;28;20025;-68
2022/01/05 02:50:40;;;;;;;7.28;1.63;;;23.30;92.40;;;;;;5053869;28;20477;-68
2022/01/05 02:53:07;;;;;;;11.02;2.17;;;23.30;92.60;;;;;;5053907;28;20014;-68
2022/01/05 02:55:34;;;;;;;8.35;1.58;;;23.30;93.10;;;;;;5052804;28;20483;-67
2022/01/05 02:58:01;;;;;;;3.30;1.00;;;23.20;92.10;;;;;;5053708;28;20429;-68
2022/01/05 03:00:28;;;;;;;8.40;1.73;;;23.10;91.90;;;;;;5052230;28;20025;-67
2022/01/05 03:02:55;;;;;;;8.75;1.88;;;23.20;92.50;;;;;;5035853;28;20506;-68
2022/01/05 03:05:23;;;;;;;6.25;1.60;;;23.20;92.70;;;;;;5053537;28;20407;-69
2022/01/05 03:07:50;;;;;;;4.30;1.45;;;23.20;92.50;;;;;;5053469;28;20048;-68
2022/01/05 03:10:18;;;;;;;6.72;1.40;;;23.20;91.80;;;;;;5053140;28;20036;-68
2022/01/05 03:12:46;;;;;;;3.35;1.40;;;23.10;91.20;;;;;;5053500;28;20503;-68
2022/01/05 03:15:13;;;;;;;2.13;1.00;;;23.10;91.40;;;;;;5035883;28;20021;-68
2022/01/05 03:17:40;;;;;;;3.53;1.20;;;23.20;91.50;;;;;;5052915;28;20048;-69
2022/01/05 03:20:08;;;;;;;3.72;1.30;;;23.20;91.30;;;;;;5053197;28;20021;-68
2022/01/05 03:22:35;;;;;;;5.88;1.23;;;23.30;91.90;;;;;;5019428;28;20483;-67
2022/01/05 03:25:03;;;;;;;4.25;1.02;;;23.30;91.80;;;;;;5035614;28;20025;-68
2022/01/05 03:27:30;;;;;;;3.35;1.10;;;23.40;91.70;;;;;;5035915;28;20025;-68
2022/01/05 03:29:57;;;;;;;3.35;1.20;;;23.40;91.70;;;;;;5053100;28;20033;-69
2022/01/05 03:32:28;;;;;;;6.15;1.10;;;23.40;91.50;;;;;;5035604;28;20025;-69
2022/01/05 03:34:56;;;;;;;3.65;1.42;;;23.30;91.10;;;;;;5053210;28;20051;-68
2022/01/05 03:37:23;;;;;;;12.43;5.65;;;23.30;91.70;;;;;;5053106;28;20037;-68
2022/01/05 03:39:50;;;;;;;4.25;1.52;;;23.20;92.00;;;;;;5035483;28;20021;-68
2022/01/05 03:42:17;;;;;;;6.53;1.80;;;23.20;91.70;;;;;;5053096;28;20357;-68
2022/01/05 03:44:44;;;;;;;9.27;2.78;;;23.10;91.70;;;;;;5035161;28;20033;-68
2022/01/05 03:47:12;;;;;;;11.38;2.25;;;23.10;91.50;;;;;;5052817;28;20479;-68
2022/01/05 03:49:39;;;;;;;9.75;2.45;;;23.10;91.70;;;;;;5052643;28;20060;-69
2022/01/05 03:52:06;;;;;;;7.88;1.70;;;23.10;91.70;;;;;;5052810;28;20025;-69
2022/01/05 03:54:33;;;;;;;13.52;3.30;;;23.10;91.80;;;;;;5052793;28;20032;-69
2022/01/05 03:57:01;;;;;;;17.58;3.80;;;23.10;92.00;;;;;;5052551;28;20029;-69
2022/01/05 03:59:28;;;;;;;14.05;2.70;;;23.10;92.10;;;;;;5052499;28;20100;-69
2022/01/05 04:01:55;;;;;;;11.80;3.10;;;23.10;92.40;;;;;;5052411;28;20025;-69
2022/01/05 04:04:22;;;;;;;40.60;5.75;;;23.20;92.30;;;;;;5052385;28;20029;-69
2022/01/05 04:06:49;;;;;;;16.40;3.78;;;23.20;92.50;;;;;;5051581;28;20025;-68
2022/01/05 04:09:16;;;;;;;5.63;1.50;;;23.20;92.40;;;;;;5052825;28;20422;-68
2022/01/05 04:11:43;;;;;;;9.25;2.47;;;23.20;92.60;;;;;;5034795;28;20388;-68
2022/01/05 04:14:12;;;;;;;21.48;3.78;;;23.20;92.60;;;;;;5034400;28;20028;-68
2022/01/05 04:16:39;;;;;;;18.23;2.97;;;23.20;92.70;;;;;;5052345;28;20510;-70
2022/01/05 04:19:06;;;;;;;33.10;5.43;;;23.10;93.10;;;;;;5031388;28;20106;-69
2022/01/05 04:21:33;;;;;;;35.25;6.43;;;23.10;93.50;;;;;;5032284;28;20530;-69
2022/01/05 04:24:01;;;;;;;8.95;2.30;;;23.10;93.60;;;;;;5032617;28;20060;-69
2022/01/05 04:26:28;;;;;;;5.22;1.58;;;23.20;93.90;;;;;;5032357;28;20032;-69
2022/01/05 04:28:55;;;;;;;5.35;2.05;;;23.10;93.70;;;;;;5032115;28;20105;-68
2022/01/05 04:31:22;;;;;;;15.18;3.20;;;23.20;94.20;;;;;;5032367;28;20144;-69
2022/01/05 04:33:49;;;;;;;10.07;2.70;;;23.10;93.90;;;;;;5031120;28;20025;-69
2022/01/05 04:36:16;;;;;;;8.77;2.05;;;23.10;94.20;;;;;;5031191;28;20021;-68
2022/01/05 04:38:43;;;;;;;9.00;2.00;;;23.20;94.30;;;;;;5032108;28;20497;-69
2022/01/05 04:41:11;;;;;;;12.55;1.95;;;23.10;94.40;;;;;;5032106;28;20029;-68
2022/01/05 04:43:38;;;;;;;10.10;2.58;;;23.10;94.00;;;;;;5032269;28;20044;-69
2022/01/05 04:46:05;;;;;;;15.55;4.88;;;23.00;94.20;;;;;;5031906;28;20017;-68
2022/01/05 04:48:32;;;;;;;16.48;3.38;;;23.10;94.70;;;;;;5031967;28;20036;-69
2022/01/05 04:50:59;;;;;;;11.23;2.63;;;23.00;94.40;;;;;;5031953;28;20403;-69
2022/01/05 04:53:26;;;;;;;12.82;3.80;;;23.10;94.30;;;;;;5031900;28;20092;-69
2022/01/05 04:55:53;;;;;;;10.48;2.92;;;23.00;94.20;;;;;;5031975;28;20029;-69
2022/01/05 04:58:21;;;;;;;8.20;2.80;;;22.90;94.40;;;;;;5030804;28;20029;-69
2022/01/05 05:00:48;;;;;;;27.15;6.20;;;22.90;94.30;;;;;;5030424;28;20428;-69
2022/01/05 05:03:15;;;;;;;11.68;3.03;;;23.00;94.60;;;;;;5031948;28;20312;-69
2022/01/05 05:05:42;;;;;;;10.10;1.80;;;23.00;94.60;;;;;;5032197;28;20041;-68
2022/01/05 05:08:10;;;;;;;13.07;2.42;;;23.10;94.90;;;;;;5031890;28;20602;-68
2022/01/05 05:10:37;;;;;;;6.40;1.70;;;23.10;94.90;;;;;;5031525;28;20503;-68
2022/01/05 05:13:09;;;;;;;8.05;2.38;;;23.10;94.80;;;;;;5030395;28;20356;-68
2022/01/05 05:15:36;;;;;;;8.63;1.70;;;23.10;94.90;;;;;;5031618;28;20036;-68
2022/01/05 05:18:04;;;;;;;10.00;1.85;;;23.20;94.90;;;;;;5039665;28;20057;-68
2022/01/05 05:20:32;;;;;;;5.82;2.08;;;23.20;95.00;;;;;;5055696;28;20021;-68
2022/01/05 05:23:00;;;;;;;10.40;2.53;;;23.30;95.10;;;;;;5055545;28;20024;-68
2022/01/05 05:25:27;;;;;;;11.02;2.75;;;23.30;95.00;;;;;;5038214;28;20035;-68
2022/01/05 05:27:55;;;;;;;9.25;2.17;;;23.30;94.90;;;;;;5037497;28;20029;-68
2022/01/05 05:30:22;;;;;;;10.70;2.58;;;23.30;94.60;;;;;;5055229;28;20509;-68
2022/01/05 05:32:49;;;;;;;28.08;6.90;;;23.20;94.60;;;;;;5055561;28;20021;-68
2022/01/05 05:35:16;;;;;;;35.13;7.88;;;23.20;94.90;;;;;;5055402;28;20021;-68
2022/01/05 05:37:44;;;;;;;17.67;4.00;;;23.20;95.00;;;;;;5055262;28;20505;-68
2022/01/05 05:40:11;;;;;;;31.05;6.82;;;23.20;94.80;;;;;;5055198;28;20044;-68
2022/01/05 05:42:38;;;;;;;14.93;4.10;;;23.20;95.10;;;;;;5037759;28;20021;-68
2022/01/05 05:45:07;;;;;;;16.05;3.15;;;23.00;94.20;;;;;;5055293;28;20021;-68
2022/01/05 05:47:34;;;;;;;13.32;3.15;;;23.10;94.60;;;;;;5055092;28;20041;-69
2022/01/05 05:50:01;;;;;;;32.13;4.20;;;23.10;94.90;;;;;;5055062;28;20041;-68
2022/01/05 05:52:28;;;;;;;22.45;3.28;;;23.10;94.60;;;;;;5055018;28;20455;-69
2022/01/05 05:54:56;;;;;;;21.50;3.13;;;23.00;94.40;;;;;;5055012;28;20040;-68
2022/01/05 05:57:23;;;;;;;16.10;3.22;;;23.00;94.60;;;;;;5055350;28;20086;-68
2022/01/05 05:59:50;;;;;;;12.48;3.75;;;23.00;94.60;;;;;;5037202;28;20071;-68
2022/01/05 06:02:17;;;;;;;14.85;4.07;;;23.00;94.60;;;;;;5054987;28;20395;-68
2022/01/05 06:04:44;;;;;;;10.68;2.60;;;23.00;94.70;;;;;;5037166;28;20036;-69
2022/01/05 06:07:12;;;;;;;15.85;2.92;;;23.00;94.70;;;;;;5054443;28;20071;-68
2022/01/05 06:09:39;;;;;;;16.58;3.20;;;23.00;94.80;;;;;;5054499;28;20032;-69
2022/01/05 06:12:06;;;;;;;27.27;5.32;;;23.20;95.10;;;;;;5037157;28;20101;-69
2022/01/05 06:14:33;;;;;;;8.27;2.05;;;23.30;95.00;;;;;;5054641;28;20023;-69
2022/01/05 06:17:01;;;;;;;17.40;3.08;;;23.30;94.80;;;;;;5054464;28;20032;-68
2022/01/05 06:19:28;;;;;;;12.85;2.70;;;23.30;94.80;;;;;;5054439;28;20041;-69
2022/01/05 06:21:55;;;;;;;16.25;2.70;;;23.30;95.00;;;;;;5054437;28;20040;-68
2022/01/05 06:24:22;;;;;;;15.57;3.55;;;23.30;94.80;;;;;;5054736;28;20032;-68
2022/01/05 06:26:51;;;;;;;14.57;2.83;;;23.30;94.60;;;;;;5054510;28;20036;-68
2022/01/05 06:29:19;;;;;;;16.13;4.03;;;23.30;94.90;;;;;;5053316;28;20013;-68
2022/01/05 06:31:46;;;;;;;11.82;3.08;;;23.30;94.70;;;;;;5054098;28;20025;-69
2022/01/05 06:34:13;;;;;;;19.02;3.72;;;23.30;94.80;;;;;;5054141;28;20036;-69
2022/01/05 06:36:41;;;;;;;17.67;3.42;;;23.30;94.30;;;;;;5054287;28;20021;-69
2022/01/05 06:39:08;;;;;;;17.58;4.00;;;23.30;94.40;;;;;;5054178;28;20029;-69
2022/01/05 06:41:35;;;;;;;22.73;3.80;;;23.30;94.40;;;;;;5054313;28;20493;-70
2022/01/05 06:44:02;;;;;;;25.10;4.00;;;23.30;94.10;;;;;;5054263;28;20021;-69
2022/01/05 06:46:29;;;;;;;24.83;4.30;;;23.30;94.20;;;;;;5054222;28;20033;-69
2022/01/05 06:48:56;;;;;;;24.33;6.80;;;23.30;94.10;;;;;;5054308;28;20017;-69
2022/01/05 06:51:24;;;;;;;24.05;4.95;;;23.30;94.10;;;;;;5052425;28;20107;-70
2022/01/05 06:53:51;;;;;;;28.27;5.07;;;23.40;94.20;;;;;;5053884;28;20024;-69
2022/01/05 06:56:18;;;;;;;24.67;5.15;;;23.40;94.30;;;;;;5053971;28;20150;-69
2022/01/05 06:58:45;;;;;;;26.73;4.57;;;23.40;94.30;;;;;;5053680;28;20028;-70
2022/01/05 07:01:12;;;;;;;18.80;4.57;;;23.50;94.40;;;;;;5053899;28;20016;-69
2022/01/05 07:03:39;;;;;;;40.22;7.30;;;23.50;94.40;;;;;;5035600;28;20524;-68
2022/01/05 07:06:07;;;;;;;23.67;4.63;;;23.50;94.00;;;;;;5053613;28;20025;-68
2022/01/05 07:08:34;;;;;;;26.45;5.15;;;23.50;93.90;;;;;;5053408;28;20021;-68
2022/01/05 07:11:01;;;;;;;24.20;4.68;;;23.60;93.90;;;;;;5053394;28;20059;-68
2022/01/05 07:13:28;;;;;;;29.90;4.78;;;23.60;94.00;;;;;;5053613;28;20027;-68
2022/01/05 07:15:55;;;;;;;33.20;6.15;;;23.60;94.00;;;;;;5053619;28;20475;-68
2022/01/05 07:18:22;;;;;;;24.58;4.65;;;23.60;94.10;;;;;;5052997;28;20048;-69
2022/01/05 07:20:50;;;;;;;23.08;5.32;;;23.70;94.10;;;;;;5053198;28;20036;-68
2022/01/05 07:23:17;;;;;;;17.15;3.83;;;23.60;93.50;;;;;;5053291;28;20502;-68
2022/01/05 07:25:44;;;;;;;29.48;5.82;;;23.70;93.70;;;;;;5053328;28;20033;-68
2022/01/05 07:28:11;;;;;;;18.60;4.22;;;23.70;93.90;;;;;;5053331;28;20022;-68
2022/01/05 07:30:39;;;;;;;26.23;4.65;;;23.70;93.30;;;;;;5053057;28;20180;-68
2022/01/05 07:33:06;;;;;;;30.10;5.32;;;23.60;93.20;;;;;;5035760;28;20463;-68
2022/01/05 07:35:33;;;;;;;30.83;5.88;;;23.70;93.60;;;;;;5053468;28;20394;-68
2022/01/05 07:38:01;;;;;;;27.05;4.65;;;23.70;93.90;;;;;;5053062;28;20025;-68
2022/01/05 07:40:28;;;;;;;29.73;5.07;;;23.70;93.60;;;;;;5052737;28;20024;-69
2022/01/05 07:42:55;;;;;;;27.88;4.75;;;23.80;94.00;;;;;;5052977;28;20036;-69
2022/01/05 07:45:22;;;;;;;29.05;5.55;;;23.80;94.10;;;;;;5052851;28;20036;-69
2022/01/05 07:47:49;;;;;;;33.53;5.90;;;23.80;93.90;;;;;;5052681;28;20147;-69
2022/01/05 07:50:16;;;;;;;47.78;7.68;;;23.80;93.00;;;;;;5052687;28;20035;-68
2022/01/05 07:52:47;;;;;;;32.33;5.57;;;23.80;93.50;;;;;;5052767;28;20021;-68
2022/01/05 07:55:14;;;;;;;29.40;5.28;;;23.80;93.60;;;;;;5052618;28;20021;-68
2022/01/05 07:57:41;;;;;;;37.53;7.50;;;23.80;93.60;;;;;;5034913;28;20033;-67
2022/01/05 08:00:09;;;;;;;43.33;8.07;;;23.80;93.30;;;;;;5052757;28;20022;-68
2022/01/05 08:02:36;;;;;;;28.13;5.55;;;23.70;92.70;;;;;;5018689;28;20043;-68
2022/01/05 08:05:07;;;;;;;29.15;6.10;;;23.70;92.80;;;;;;5052421;28;20758;-69
2022/01/05 08:07:35;;;;;;;32.63;5.55;;;23.70;93.00;;;;;;5034721;28;20033;-69
2022/01/05 08:10:02;;;;;;;38.72;6.55;;;23.70;92.90;;;;;;5052130;28;20082;-69
2022/01/05 08:12:29;;;;;;;32.28;6.05;;;23.70;93.00;;;;;;5052189;28;20037;-69
2022/01/05 08:14:57;;;;;;;29.77;5.30;;;23.60;91.90;;;;;;5052008;28;20013;-69
2022/01/05 08:17:24;;;;;;;38.63;6.68;;;23.60;92.70;;;;;;5052409;28;20025;-69
2022/01/05 08:19:52;;;;;;;35.20;6.20;;;23.70;92.20;;;;;;5052298;28;20029;-69
2022/01/05 08:22:19;;;;;;;35.28;6.22;;;23.70;92.10;;;;;;5051962;28;20028;-69
2022/01/05 08:24:46;;;;;;;30.00;4.85;;;23.70;92.70;;;;;;5051614;28;20045;-69
2022/01/05 08:27:14;;;;;;;32.45;5.65;;;23.70;92.80;;;;;;5051956;28;20029;-68
2022/01/05 08:29:41;;;;;;;30.70;5.32;;;23.70;92.90;;;;;;5051950;28;20025;-68
2022/01/05 08:32:08;;;;;;;35.15;5.80;;;23.70;92.50;;;;;;5052153;28;20507;-68
2022/01/05 08:34:35;;;;;;;31.25;6.75;;;23.70;92.60;;;;;;5051937;28;20032;-68
2022/01/05 08:37:03;;;;;;;31.17;5.45;;;23.60;91.90;;;;;;5052059;28;20033;-69
2022/01/05 08:39:30;;;;;;;35.33;6.00;;;23.60;91.80;;;;;;5051963;28;20032;-68
2022/01/05 08:41:57;;;;;;;28.95;5.40;;;23.70;92.00;;;;;;5034154;28;20077;-68
2022/01/05 08:44:24;;;;;;;29.02;5.28;;;23.60;92.20;;;;;;5051679;28;20035;-69
2022/01/05 08:46:51;;;;;;;27.73;4.90;;;23.70;91.80;;;;;;5051927;28;20021;-69
2022/01/05 08:49:18;;;;;;;30.17;5.35;;;23.60;91.40;;;;;;5052164;28;20021;-69
2022/01/05 08:51:45;;;;;;;33.45;6.10;;;23.70;91.90;;;;;;5051464;28;20033;-69
2022/01/05 08:54:12;;;;;;;30.70;5.47;;;23.70;91.80;;;;;;5052020;28;20056;-69
2022/01/05 08:56:40;;;;;;;42.03;7.63;;;23.70;92.00;;;;;;5051991;28;20029;-69
2022/01/05 08:59:07;;;;;;;30.90;6.13;;;23.70;91.90;;;;;;5034135;28;20025;-69
2022/01/05 09:01:34;;;;;;;41.53;5.75;;;23.60;91.20;;;;;;5033912;28;20017;-69
2022/01/05 09:04:01;;;;;;;30.48;5.25;;;23.70;91.60;;;;;;5051806;28;20380;-69
2022/01/05 09:06:28;;;;;;;34.25;5.40;;;23.60;91.30;;;;;;5051604;28;20427;-69
2022/01/05 09:08:55;;;;;;;36.67;6.40;;;23.70;91.20;;;;;;5051747;28;20064;-69
2022/01/05 09:11:23;;;;;;;32.35;6.20;;;23.70;91.10;;;;;;5051231;28;20047;-69
2022/01/05 09:13:50;;;;;;;26.25;5.25;;;23.70;90.80;;;;;;5033910;28;20025;-69
2022/01/05 09:16:17;;;;;;;31.33;6.07;;;23.70;90.80;;;;;;5033599;28;20533;-68
2022/01/05 09:18:44;;;;;;;26.75;6.10;;;23.70;90.90;;;;;;5051604;28;20418;-68
2022/01/05 09:21:11;;;;;;;34.22;7.78;;;23.70;90.50;;;;;;5051370;28;20490;-68
2022/01/05 09:23:39;;;;;;;28.60;6.22;;;23.70;90.60;;;;;;5000695;28;20049;-68
2022/01/05 09:26:06;;;;;;;23.52;5.45;;;23.70;90.50;;;;;;5051549;28;20036;-68
2022/01/05 09:28:33;;;;;;;38.40;6.72;;;23.70;90.40;;;;;;5051536;28;20028;-68
2022/01/05 09:31:00;;;;;;;32.42;5.47;;;23.70;90.50;;;;;;5051140;28;20581;-68
2022/01/05 09:33:28;;;;;;;39.85;6.22;;;23.70;90.50;;;;;;5051381;28;20033;-68
2022/01/05 09:36:03;;;;;;;28.30;5.53;;;23.70;90.60;;;;;;5051456;28;20029;-68
2022/01/05 09:44:11;;;;;;;33.28;5.30;;;23.80;90.60;;;;;;5036141;28;20040;-69
2022/01/05 09:46:49;;;;;;;31.98;5.82;;;23.80;90.40;;;;;;5033777;28;20025;-69
2022/01/05 09:49:32;;;;;;;40.63;6.97;;;23.80;90.40;;;;;;5018082;28;20551;-68
2022/01/05 09:52:03;;;;;;;26.27;5.50;;;23.80;90.60;;;;;;5034863;28;20418;-69
2022/01/05 09:54:36;;;;;;;30.98;5.78;;;23.80;90.50;;;;;;5033794;28;20052;-69
2022/01/05 09:57:05;;;;;;;29.92;6.57;;;23.80;90.60;;;;;;5051122;28;20029;-68
2022/01/05 09:59:34;;;;;;;34.95;6.30;;;23.80;90.40;;;;;;5051144;28;20104;-68
2022/01/05 10:02:04;;;;;;;32.95;5.72;;;23.80;90.30;;;;;;5050926;28;20075;-68
2022/01/05 10:04:31;;;;;;;33.08;6.35;;;23.80;90.30;;;;;;5053380;28;20104;-69
2022/01/05 10:06:59;;;;;;;30.40;5.75;;;23.70;90.30;;;;;;5054734;28;20029;-68
2022/01/05 10:09:26;;;;;;;33.40;6.25;;;23.70;90.00;;;;;;5037014;28;20021;-69
2022/01/05 10:11:53;;;;;;;29.75;6.15;;;23.80;90.20;;;;;;5054676;28;20029;-68
2022/01/05 10:14:20;;;;;;;22.77;4.75;;;23.80;90.10;;;;;;5054843;28;20078;-68
2022/01/05 10:17:11;;;;;;;26.15;5.90;;;23.80;90.30;;;;;;5054589;28;20033;-69
2022/01/05 10:19:38;;;;;;;27.67;4.97;;;23.80;90.40;;;;;;5054475;28;20076;-68
2022/01/05 10:22:26;;;;;;;26.25;4.80;;;23.80;90.40;;;;;;5054523;28;20029;-68
2022/01/05 10:24:56;;;;;;;23.77;4.95;;;23.80;90.50;;;;;;5052947;28;20510;-68
2022/01/05 10:27:25;;;;;;;29.20;5.63;;;23.80;90.40;;;;;;5054726;28;20024;-68
2022/01/05 10:30:00;;;;;;;36.58;6.03;;;23.80;90.40;;;;;;5053995;28;20045;-69
2022/01/05 10:32:33;;;;;;;31.95;6.13;;;23.80;90.50;;;;;;5054121;28;20472;-69
2022/01/05 10:35:08;;;;;;;33.80;5.03;;;23.80;90.60;;;;;;5054188;28;20123;-68
2022/01/05 10:37:37;;;;;;;32.78;5.10;;;23.80;90.80;;;;;;5037241;28;20092;-68
2022/01/05 10:40:06;;;;;;;37.50;7.18;;;23.80;90.80;;;;;;5036315;28;20551;-68
2022/01/05 10:42:34;;;;;;;36.42;6.65;;;23.80;90.90;;;;;;5036548;28;20033;-68
2022/01/05 10:45:03;;;;;;;38.97;6.63;;;23.80;90.90;;;;;;5003623;28;20032;-68
2022/01/05 10:47:31;;;;;;;24.75;5.00;;;23.80;91.00;;;;;;5036443;28;20048;-68
2022/01/05 10:49:58;;;;;;;31.17;5.50;;;23.80;91.00;;;;;;5036287;28;20442;-68
2022/01/05 10:52:35;;;;;;;29.95;5.28;;;23.80;91.00;;;;;;5053919;28;20025;-68
2022/01/05 10:55:15;;;;;;;30.83;5.70;;;23.80;90.80;;;;;;5037067;28;20025;-68
2022/01/05 10:58:03;;;;;;;31.63;5.35;;;23.80;90.50;;;;;;5054019;28;20112;-68
2022/01/05 11:00:35;;;;;;;32.17;5.75;;;23.80;90.70;;;;;;5053656;28;20029;-68
2022/01/05 11:03:02;;;;;;;36.58;6.57;;;23.80;90.50;;;;;;5053712;28;20040;-68
2022/01/05 11:05:29;;;;;;;31.15;6.43;;;23.80;90.40;;;;;;5035910;28;20021;-68
2022/01/05 11:08:17;;;;;;;32.22;5.75;;;23.80;90.30;;;;;;5053467;28;20426;-68
2022/01/05 11:10:46;;;;;;;;;;;23.80;90.50;;;;;;5053816;28;20148;-68
2022/01/05 11:13:13;;;;;;;34.28;6.50;;;23.80;90.60;;;;;;5053634;28;19905;-68
2022/01/05 11:15:40;;;;;;;34.85;6.90;;;23.80;90.40;;;;;;5035307;28;20025;-68
2022/01/05 11:18:18;;;;;;;28.13;5.65;;;23.80;90.70;;;;;;5053305;28;20395;-68
2022/01/05 11:20:51;;;;;;;28.63;5.57;;;23.80;90.70;;;;;;5053228;28;20033;-68
2022/01/05 11:23:19;;;;;;;39.13;7.15;;;23.80;90.50;;;;;;5053146;28;20021;-69
2022/01/05 11:25:47;;;;;;;36.83;6.13;;;23.80;90.60;;;;;;5035440;28;20013;-69
2022/01/05 11:28:15;;;;;;;32.50;5.65;;;23.80;90.70;;;;;;5053502;28;20067;-69
2022/01/05 11:30:43;;;;;;;31.15;5.20;;;23.80;90.70;;;;;;5035384;28;20036;-69
2022/01/05 11:33:10;;;;;;;31.13;5.40;;;23.80;90.90;;;;;;5053168;28;20074;-69
2022/01/05 11:35:37;;;;;;;26.92;5.93;;;23.80;90.90;;;;;;5035425;28;20025;-69
2022/01/05 11:38:05;;;;;;;27.70;4.47;;;23.80;90.90;;;;;;5035368;28;20372;-68
2022/01/05 11:40:33;;;;;;;26.20;5.25;;;23.80;90.90;;;;;;5052244;28;20044;-68
2022/01/05 11:43:12;;;;;;;34.70;5.65;;;23.80;91.00;;;;;;5052841;28;20033;-68
2022/01/05 11:45:47;;;;;;;28.00;5.25;;;23.70;91.30;;;;;;5053203;28;20029;-69
2022/01/05 11:48:31;;;;;;;30.27;6.15;;;23.50;91.40;;;;;;5053005;28;20072;-68
2022/01/05 11:51:01;;;;;;;23.92;3.92;;;23.40;92.40;;;;;;5052855;28;20072;-69
2022/01/05 11:53:39;;;;;;;29.25;5.38;;;23.30;92.60;;;;;;5052900;28;20491;-68
2022/01/05 11:56:12;;;;;;;37.13;6.35;;;23.10;92.60;;;;;;5051330;28;20037;-69
2022/01/05 11:59:03;;;;;;;23.13;4.95;;;23.00;93.20;;;;;;5052671;28;20029;-68
2022/01/05 12:01:37;;;;;;;17.20;4.00;;;23.00;93.90;;;;;;5043499;28;20099;-68
2022/01/05 12:04:10;;;;;;;22.13;3.95;;;22.80;93.50;;;;;;5052648;28;20025;-68
2022/01/05 12:06:46;;;;;;;25.77;3.50;;;22.80;94.00;;;;;;5052498;28;20379;-68
2022/01/05 12:09:21;;;;;;;16.77;3.05;;;22.80;94.40;;;;;;5052854;28;20041;-68
2022/01/05 12:11:48;;;;;;;21.45;3.55;;;22.70;94.20;;;;;;5034950;28;20064;-68
2022/01/05 12:14:22;;;;;;;19.20;3.20;;;22.70;94.40;;;;;;5052768;28;20415;-67
2022/01/05 12:17:11;;;;;;;27.77;5.05;;;22.70;94.40;;;;;;5052177;28;20025;-67
2022/01/05 12:19:47;;;;;;;16.17;2.93;;;22.70;94.80;;;;;;5052274;28;20076;-67
2022/01/05 12:22:18;;;;;;;20.17;9.25;;;22.70;94.70;;;;;;5052915;28;20349;-67
2022/01/05 12:24:54;;;;;;;28.58;4.95;;;22.70;94.90;;;;;;5052097;28;20036;-67
2022/01/05 12:27:32;;;;;;;22.23;4.65;;;22.60;94.90;;;;;;5051078;28;20056;-67
2022/01/05 12:30:00;;;;;;;27.70;5.55;;;22.60;94.80;;;;;;5051899;28;20056;-67
2022/01/05 12:32:35;;;;;;;25.48;4.60;;;22.50;94.80;;;;;;5052159;28;20021;-68
2022/01/05 12:35:03;;;;;;;21.60;4.10;;;22.50;95.10;;;;;;5034242;28;20036;-67
2022/01/05 12:37:49;;;;;;;35.78;5.20;;;22.50;95.10;;;;;;5034105;28;20025;-67
2022/01/05 12:40:23;;;;;;;37.05;5.38;;;22.60;95.40;;;;;;5051886;28;20013;-68
2022/01/05 12:43:10;;;;;;;31.08;4.80;;;22.60;95.40;;;;;;5034263;28;20044;-68
2022/01/05 12:45:53;;;;;;;37.35;5.30;;;22.60;95.50;;;;;;5051839;28;20037;-68
2022/01/05 12:48:33;;;;;;;36.90;5.75;;;22.70;95.60;;;;;;5051851;28;20082;-68
2022/01/05 12:51:12;;;;;;;41.92;6.35;;;22.70;95.50;;;;;;5051444;28;20033;-68
2022/01/05 12:54:06;;;;;;;27.08;4.20;;;22.70;95.60;;;;;;5051907;28;20387;-68